Time;durP1;ratioP1;P1;durP2;ratioP2;P2;SDS_P1;SDS_P2;PMS_P1;PMS_P2;Temp;Humidity;BMP_temperature;BMP_pressure;BME280_temperature;BME280_humidity;BME280_pressure;Samples;Min_cycle;Max_cycle;Signal;HPM_P1;HPM_P2
2023/04/30 00:00:15;;;;;;;9.00;3.20;;;;;;;18.19;44.20;102457.97;5030372;28;20017;-68
2023/04/30 00:02:40;;;;;;;7.80;3.43;;;;;;;18.19;43.48;102459.72;5049979;28;20066;-69
2023/04/30 00:05:06;;;;;;;9.53;3.73;;;;;;;18.18;43.74;102468.59;5042617;28;20033;-68
2023/04/30 00:07:31;;;;;;;7.07;3.50;;;;;;;19.01;42.79;102456.53;5035874;28;20107;-69
2023/04/30 00:09:56;;;;;;;9.13;3.80;;;;;;;18.34;43.38;102453.31;5036267;28;20045;-70
2023/04/30 00:12:22;;;;;;;6.87;3.13;;;;;;;18.50;42.98;102453.94;5046830;28;20022;-70
2023/04/30 00:14:48;;;;;;;9.07;2.97;;;;;;;18.64;43.09;102446.59;5047352;28;20462;-69
2023/04/30 00:17:13;;;;;;;12.43;3.10;;;;;;;18.14;43.72;102450.09;5033549;28;20055;-70
2023/04/30 00:19:39;;;;;;;5.87;3.10;;;;;;;18.38;43.15;102442.66;5050569;28;20100;-70
2023/04/30 00:22:05;;;;;;;10.83;3.40;;;;;;;18.29;43.01;102441.03;5042806;28;20370;-70
2023/04/30 00:24:30;;;;;;;7.57;3.60;;;;;;;17.87;43.99;102447.84;5046854;28;20056;-70
2023/04/30 00:26:56;;;;;;;7.53;3.33;;;;;;;18.32;43.09;102442.75;5049633;28;20059;-69
2023/04/30 00:29:21;;;;;;;5.57;3.20;;;;;;;18.47;42.58;102450.44;5069747;28;20063;-69
2023/04/30 00:31:46;;;;;;;7.57;3.13;;;;;;;18.18;43.12;102443.00;5066177;28;20070;-69
2023/04/30 00:34:12;;;;;;;7.93;3.57;;;;;;;18.34;43.07;102454.22;5035217;28;20471;-70
2023/04/30 00:36:38;;;;;;;8.07;3.00;;;;;;;18.06;43.39;102449.34;5050832;28;20043;-69
2023/04/30 00:39:04;;;;;;;5.63;2.73;;;;;;;18.29;43.39;102448.13;5050498;28;20094;-69
2023/04/30 00:41:31;;;;;;;7.03;3.07;;;;;;;18.04;43.75;102437.03;5048324;28;20020;-69
2023/04/30 00:43:56;;;;;;;7.10;3.33;;;;;;;18.16;43.57;102443.91;5045671;28;20033;-69
2023/04/30 00:46:22;;;;;;;7.43;3.53;;;;;;;18.06;43.79;102444.06;5050886;28;20021;-69
2023/04/30 00:48:47;;;;;;;6.90;3.50;;;;;;;18.43;42.37;102446.09;5062421;28;20067;-69
2023/04/30 00:51:13;;;;;;;8.00;3.10;;;;;;;18.14;43.24;102452.75;5038961;28;20033;-69
2023/04/30 00:53:39;;;;;;;9.10;3.27;;;;;;;17.80;43.87;102453.25;5034468;28;20509;-68
2023/04/30 00:56:07;;;;;;;7.63;3.43;;;;;;;17.24;45.18;102449.59;5028836;28;20021;-70
2023/04/30 00:58:33;;;;;;;5.63;3.20;;;;;;;17.71;44.96;102458.66;5030267;28;20064;-69
2023/04/30 01:00:59;;;;;;;12.87;3.87;;;;;;;17.62;45.07;102453.50;5042417;28;20053;-69
2023/04/30 01:03:25;;;;;;;11.70;4.53;;;;;;;17.01;45.42;102455.13;5048435;28;20052;-70
2023/04/30 01:05:52;;;;;;;10.47;3.80;;;;;;;17.30;45.95;102453.03;5048911;28;20454;-69
2023/04/30 01:08:18;;;;;;;8.37;3.57;;;;;;;17.15;44.69;102462.94;5039884;28;20032;-70
2023/04/30 01:10:50;;;;;;;9.70;3.23;;;;;;;17.57;44.85;102465.91;5049539;28;20601;-70
2023/04/30 01:13:42;;;;;;;5.88;2.92;;;;;;;17.43;44.52;102461.69;5047899;28;20036;-69
2023/04/30 01:16:14;;;;;;;7.70;3.50;;;;;;;17.43;44.99;102464.34;5048988;28;20117;-71
2023/04/30 01:18:45;;;;;;;7.30;3.13;;;;;;;17.44;45.08;102466.06;5054409;28;20033;-70
2023/04/30 01:21:12;;;;;;;8.30;3.17;;;;;;;17.20;46.60;102474.28;5048054;28;20033;-68
2023/04/30 01:24:02;;;;;;;7.70;3.50;;;;;;;17.22;45.00;102469.88;5048791;28;20029;-69
2023/04/30 01:26:51;;;;;;;8.20;2.90;;;;;;;17.45;45.75;102473.09;5045658;28;20488;-68
2023/04/30 01:29:19;;;;;;;8.27;3.37;;;;;;;17.62;45.51;102477.28;5040197;28;20036;-69
2023/04/30 01:31:45;;;;;;;5.80;3.03;;;;;;;17.41;46.04;102474.03;5029285;28;20029;-68
2023/04/30 01:34:10;;;;;;;7.20;3.77;;;;;;;17.38;45.91;102468.81;5027886;28;20036;-69
2023/04/30 01:37:21;;;;;;;10.87;3.30;;;;;;;16.91;47.21;102480.78;5056195;28;20048;-68
2023/04/30 01:40:07;;;;;;;7.27;3.20;;;;;;;17.74;45.25;102485.06;5048397;28;20501;-68
2023/04/30 01:42:44;;;;;;;9.87;4.20;;;;;;;17.46;45.58;102468.69;5050362;28;20583;-68
2023/04/30 01:45:15;;;;;;;7.33;4.07;;;;;;;17.78;44.85;102476.19;5045288;28;20028;-71
2023/04/30 01:47:52;;;;;;;10.37;3.87;;;;;;;17.52;45.66;102478.34;5044819;28;20037;-69
2023/04/30 01:50:41;;;;;;;10.57;4.30;;;;;;;17.29;45.97;102475.06;5056024;28;20088;-69
2023/04/30 01:53:12;;;;;;;8.73;4.17;;;;;;;17.47;45.73;102465.16;5049337;28;20627;-68
2023/04/30 01:55:52;;;;;;;8.03;3.70;;;;;;;17.42;46.04;102461.69;5052777;28;20033;-68
2023/04/30 01:58:22;;;;;;;7.07;3.97;;;;;;;17.52;45.81;102462.47;5056092;28;20028;-68
2023/04/30 02:00:47;;;;;;;9.77;4.10;;;;;;;17.39;45.93;102462.63;5030598;28;20400;-69
2023/04/30 02:03:13;;;;;;;7.90;3.90;;;;;;;17.54;45.35;102460.66;5028032;28;20025;-68
2023/04/30 02:05:38;;;;;;;9.87;3.97;;;;;;;17.49;45.54;102459.84;5028799;28;20029;-69
2023/04/30 02:08:04;;;;;;;9.23;3.93;;;;;;;17.75;45.16;102459.47;5046543;28;20040;-72
2023/04/30 02:10:30;;;;;;;8.63;3.70;;;;;;;17.36;45.80;102456.50;5049891;28;20091;-68
2023/04/30 02:12:55;;;;;;;9.10;3.57;;;;;;;17.02;46.73;102460.44;5068362;28;20089;-69
2023/04/30 02:15:20;;;;;;;9.50;3.93;;;;;;;17.50;45.91;102456.31;5054489;28;20115;-68
2023/04/30 02:17:46;;;;;;;12.70;3.93;;;;;;;17.01;46.44;102461.31;5048332;28;20114;-68
2023/04/30 02:20:11;;;;;;;13.07;4.37;;;;;;;16.84;46.58;102457.94;5047889;28;20123;-69
2023/04/30 02:22:37;;;;;;;7.57;3.97;;;;;;;17.43;46.43;102453.75;5046643;28;20120;-68
2023/04/30 02:25:03;;;;;;;8.23;3.87;;;;;;;17.26;46.58;102455.75;5048745;28;20469;-68
2023/04/30 02:27:30;;;;;;;8.40;4.03;;;;;;;17.54;45.15;102468.59;5062376;28;20036;-69
2023/04/30 02:29:56;;;;;;;11.00;4.30;;;;;;;17.00;47.14;102469.25;5038313;28;20485;-69
2023/04/30 02:32:21;;;;;;;12.27;4.97;;;;;;;17.21;46.37;102471.63;5027725;28;20346;-68
2023/04/30 02:34:47;;;;;;;9.73;4.53;;;;;;;17.13;46.26;102471.75;5032552;28;20124;-68
2023/04/30 02:37:12;;;;;;;8.50;3.90;;;;;;;16.66;47.36;102467.78;5045340;28;20071;-69
2023/04/30 02:39:38;;;;;;;8.17;4.23;;;;;;;16.98;46.56;102471.91;5048198;28;20532;-68
2023/04/30 02:42:05;;;;;;;8.70;4.40;;;;;;;16.37;48.43;102468.91;5048260;28;20021;-68
2023/04/30 02:44:31;;;;;;;7.97;3.90;;;;;;;16.82;47.44;102465.00;5048588;28;20029;-68
2023/04/30 02:46:56;;;;;;;8.30;4.17;;;;;;;16.72;47.01;102459.81;5047464;28;20382;-70
2023/04/30 02:49:22;;;;;;;8.17;3.93;;;;;;;16.18;49.19;102462.03;5044686;28;20043;-70
2023/04/30 02:51:47;;;;;;;7.47;3.10;;;;;;;16.23;48.88;102458.47;5045109;28;20040;-70
2023/04/30 02:54:12;;;;;;;11.23;4.27;;;;;;;17.13;47.03;102455.88;5047318;28;20794;-71
2023/04/30 02:56:38;;;;;;;10.67;3.57;;;;;;;16.40;48.58;102457.47;5048722;28;20540;-70
2023/04/30 02:59:04;;;;;;;9.07;4.00;;;;;;;16.47;47.65;102460.94;5061321;28;20029;-71
2023/04/30 03:01:29;;;;;;;8.87;4.20;;;;;;;15.84;50.43;102454.34;5027874;28;20033;-71
2023/04/30 03:03:54;;;;;;;7.00;3.50;;;;;;;16.31;49.35;102455.78;5040992;28;20036;-70
2023/04/30 03:06:20;;;;;;;9.40;3.70;;;;;;;16.41;48.02;102454.81;5048040;28;20400;-70
2023/04/30 03:08:46;;;;;;;9.20;3.70;;;;;;;16.85;47.60;102457.06;5049245;28;20099;-71
2023/04/30 03:11:11;;;;;;;12.67;4.00;;;;;;;16.33;47.74;102461.06;5040453;28;20268;-70
2023/04/30 03:13:36;;;;;;;10.57;4.47;;;;;;;16.27;47.94;102459.34;5050792;28;20037;-71
2023/04/30 03:16:06;;;;;;;7.53;3.67;;;;;;;16.77;47.19;102458.00;5028089;28;20424;-70
2023/04/30 03:18:31;;;;;;;13.40;4.17;;;;;;;16.43;47.30;102468.88;5026946;28;20041;-70
2023/04/30 03:20:57;;;;;;;8.57;4.37;;;;;;;16.70;47.17;102473.91;5027468;28;20554;-70
2023/04/30 03:23:25;;;;;;;6.83;3.83;;;;;;;16.60;47.91;102468.72;5047178;28;20040;-70
2023/04/30 03:25:51;;;;;;;8.83;3.53;;;;;;;16.42;47.91;102475.03;5046135;28;20430;-68
2023/04/30 03:28:16;;;;;;;8.47;3.83;;;;;;;15.88;48.97;102478.09;5046254;28;20090;-70
2023/04/30 03:30:41;;;;;;;9.47;3.77;;;;;;;16.26;48.98;102470.78;5029519;28;20129;-71
2023/04/30 03:33:07;;;;;;;9.43;3.80;;;;;;;16.89;46.95;102466.72;5042870;28;20040;-71
2023/04/30 03:35:33;;;;;;;10.57;3.70;;;;;;;16.76;46.60;102458.91;5046482;28;20025;-71
2023/04/30 03:38:02;;;;;;;8.67;3.93;;;;;;;16.73;47.78;102456.28;5055583;28;20492;-71
2023/04/30 03:40:27;;;;;;;10.47;3.87;;;;;;;16.80;46.75;102451.81;5071481;28;20112;-69
2023/04/30 03:42:52;;;;;;;11.30;3.77;;;;;;;16.92;46.55;102450.84;5072623;28;20099;-70
2023/04/30 03:45:18;;;;;;;8.50;4.13;;;;;;;16.96;46.10;102447.28;5067196;28;20052;-69
2023/04/30 03:47:44;;;;;;;9.53;3.37;;;;;;;16.39;47.68;102450.44;5030750;28;20091;-69
2023/04/30 03:50:10;;;;;;;6.87;3.27;;;;;;;16.62;47.58;102458.13;5031928;28;20025;-71
2023/04/30 03:52:35;;;;;;;11.13;4.67;;;;;;;16.26;47.29;102465.50;5031170;28;20627;-69
2023/04/30 03:55:01;;;;;;;7.30;3.40;;;;;;;16.86;45.94;102461.44;5030284;28;20025;-70
2023/04/30 03:57:27;;;;;;;8.40;3.53;;;;;;;16.71;46.41;102455.41;5050579;28;20635;-69
2023/04/30 03:59:52;;;;;;;7.17;3.93;;;;;;;16.81;46.66;102452.69;5065125;28;20029;-71
2023/04/30 04:02:18;;;;;;;8.27;3.77;;;;;;;16.68;46.20;102451.91;5030758;28;20056;-70
2023/04/30 04:04:43;;;;;;;8.17;3.80;;;;;;;16.51;47.51;102452.09;5031125;28;20029;-70
2023/04/30 04:07:10;;;;;;;7.40;3.57;;;;;;;16.37;47.25;102453.09;5030513;28;20558;-70
2023/04/30 04:09:35;;;;;;;7.13;3.47;;;;;;;16.72;47.32;102438.69;5031266;28;20056;-71
2023/04/30 04:12:01;;;;;;;6.90;3.67;;;;;;;16.36;47.63;102451.38;5040708;28;20476;-71
2023/04/30 04:14:27;;;;;;;6.50;3.67;;;;;;;16.67;46.82;102450.19;5069481;28;20077;-71
2023/04/30 04:16:52;;;;;;;7.70;3.53;;;;;;;16.28;48.48;102453.19;5053298;28;20053;-70
2023/04/30 04:19:18;;;;;;;9.27;3.57;;;;;;;16.75;47.05;102446.56;5050030;28;20021;-70
2023/04/30 04:21:43;;;;;;;8.63;3.83;;;;;;;16.39;46.96;102446.03;5039501;28;20024;-70
2023/04/30 04:24:09;;;;;;;8.20;4.30;;;;;;;16.23;47.48;102453.19;5031138;28;20037;-69
2023/04/30 04:26:35;;;;;;;5.40;3.20;;;;;;;15.96;49.31;102454.28;5049651;28;20064;-69
2023/04/30 04:29:02;;;;;;;9.73;3.80;;;;;;;15.46;49.21;102450.16;5061489;28;20033;-69
2023/04/30 04:31:28;;;;;;;8.87;3.63;;;;;;;15.92;49.48;102460.47;5049792;28;20068;-70
2023/04/30 04:33:57;;;;;;;7.70;2.93;;;;;;;15.96;48.45;102451.66;5051579;28;20410;-69
2023/04/30 04:36:26;;;;;;;11.17;3.40;;;;;;;16.12;48.42;102452.41;5048059;28;20067;-68
2023/04/30 04:38:52;;;;;;;13.53;3.90;;;;;;;16.28;48.14;102454.06;5070570;28;20031;-68
2023/04/30 04:41:18;;;;;;;7.73;3.57;;;;;;;16.29;47.69;102449.63;5059764;28;20024;-69
2023/04/30 04:43:43;;;;;;;8.07;3.70;;;;;;;16.15;47.92;102460.31;5042203;28;20084;-68
2023/04/30 04:46:09;;;;;;;9.00;3.43;;;;;;;16.38;47.78;102460.13;5032943;28;20054;-69
2023/04/30 04:48:34;;;;;;;8.13;3.63;;;;;;;16.30;47.91;102461.94;5064839;28;20066;-68
2023/04/30 04:51:00;;;;;;;10.47;3.87;;;;;;;15.93;49.22;102472.75;5069083;28;20016;-68
2023/04/30 04:53:25;;;;;;;6.67;3.13;;;;;;;16.23;47.59;102468.16;5069223;28;20048;-68
2023/04/30 04:55:51;;;;;;;9.40;3.33;;;;;;;16.33;47.78;102464.56;5060373;28;20036;-68
2023/04/30 04:58:16;;;;;;;6.80;3.43;;;;;;;16.39;47.14;102472.44;5053987;28;20025;-69
2023/04/30 05:00:42;;;;;;;5.53;2.97;;;;;;;15.70;49.36;102471.13;5041171;28;20525;-68
2023/04/30 05:03:08;;;;;;;5.87;2.77;;;;;;;16.15;48.96;102473.50;5045106;28;20017;-68
2023/04/30 05:05:33;;;;;;;7.83;3.33;;;;;;;16.37;47.62;102468.91;5048799;28;20505;-68
2023/04/30 05:07:58;;;;;;;7.60;3.70;;;;;;;15.91;49.35;102469.28;5047920;28;20385;-68
2023/04/30 05:10:24;;;;;;;5.83;3.07;;;;;;;16.30;47.91;102469.00;5028566;28;20044;-68
2023/04/30 05:12:49;;;;;;;6.63;3.50;;;;;;;15.46;49.86;102472.09;5028202;28;20504;-68
2023/04/30 05:15:15;;;;;;;6.10;3.03;;;;;;;15.30;50.46;102476.56;5045721;28;20021;-68
2023/04/30 05:17:40;;;;;;;9.13;3.07;;;;;;;15.69;50.06;102469.38;5030413;28;20036;-69
2023/04/30 05:20:06;;;;;;;6.67;3.43;;;;;;;16.11;48.74;102470.03;5028908;28;20057;-68
2023/04/30 05:22:32;;;;;;;6.03;3.10;;;;;;;15.98;49.75;102470.97;5032907;28;20071;-68
2023/04/30 05:24:57;;;;;;;5.83;3.17;;;;;;;16.56;48.17;102474.91;5028617;28;20517;-68
2023/04/30 05:27:22;;;;;;;6.57;3.47;;;;;;;16.04;49.17;102470.94;5029165;28;20257;-69
2023/04/30 05:29:48;;;;;;;8.33;2.97;;;;;;;15.60;50.00;102474.69;5029270;28;20053;-69
2023/04/30 05:32:13;;;;;;;5.37;3.00;;;;;;;15.59;50.32;102467.66;5029281;28;20028;-68
2023/04/30 05:34:38;;;;;;;8.67;2.80;;;;;;;15.93;50.39;102473.63;5029109;28;20434;-69
2023/04/30 05:37:04;;;;;;;8.40;2.80;;;;;;;16.53;49.18;102479.38;5030563;28;20507;-68
2023/04/30 05:39:29;;;;;;;6.63;3.07;;;;;;;17.02;47.55;102468.34;5035425;28;20033;-70
2023/04/30 05:41:55;;;;;;;5.77;3.07;;;;;;;17.11;46.71;102467.38;5028145;28;20173;-70
2023/04/30 05:44:20;;;;;;;5.97;2.87;;;;;;;16.16;49.49;102477.03;5047955;28;20017;-70
2023/04/30 05:46:46;;;;;;;5.43;2.73;;;;;;;16.23;48.68;102473.44;5045798;28;20107;-71
2023/04/30 05:49:11;;;;;;;5.53;2.50;;;;;;;16.35;48.60;102472.44;5037614;28;20389;-70
2023/04/30 05:51:37;;;;;;;7.70;2.97;;;;;;;16.80;47.67;102470.28;5049577;28;20040;-69
2023/04/30 05:54:02;;;;;;;7.53;2.97;;;;;;;16.70;48.40;102466.00;5047899;28;20073;-69
2023/04/30 05:56:28;;;;;;;6.80;4.27;;;;;;;16.50;48.79;102463.53;5045130;28;20029;-69
2023/04/30 05:58:53;;;;;;;7.60;3.20;;;;;;;16.57;47.96;102465.25;5044865;28;20037;-68
2023/04/30 06:01:19;;;;;;;6.17;3.37;;;;;;;16.07;49.81;102470.94;5043989;28;20145;-69
2023/04/30 06:03:45;;;;;;;5.83;2.50;;;;;;;16.26;49.04;102462.88;5047350;28;20451;-69
2023/04/30 06:06:11;;;;;;;5.33;3.17;;;;;;;17.59;46.23;102465.00;5049030;28;20044;-69
2023/04/30 06:08:36;;;;;;;6.33;3.00;;;;;;;17.05;48.00;102467.41;5030196;28;20474;-69
2023/04/30 06:11:03;;;;;;;5.73;3.00;;;;;;;15.85;49.63;102474.56;5044807;28;20029;-69
2023/04/30 06:13:31;;;;;;;9.50;3.27;;;;;;;16.91;48.26;102465.81;5047278;28;20033;-68
2023/04/30 06:15:56;;;;;;;5.87;2.87;;;;;;;17.34;46.33;102464.44;5047350;28;20102;-69
2023/04/30 06:18:22;;;;;;;6.23;3.03;;;;;;;16.82;48.45;102459.72;5047939;28;20025;-69
2023/04/30 06:20:47;;;;;;;5.40;2.53;;;;;;;16.44;48.72;102470.63;5044578;28;20017;-69
2023/04/30 06:23:12;;;;;;;8.77;2.90;;;;;;;17.30;47.32;102468.03;5038389;28;20053;-69
2023/04/30 06:25:38;;;;;;;8.93;2.53;;;;;;;17.60;46.83;102471.16;5047206;28;20040;-69
2023/04/30 06:28:08;;;;;;;3.53;2.37;;;;;;;18.46;44.53;102480.47;5059370;28;20052;-70
2023/04/30 06:30:34;;;;;;;5.37;2.90;;;;;;;18.25;45.70;102481.69;5048552;28;20082;-69
2023/04/30 06:32:59;;;;;;;8.27;2.90;;;;;;;18.37;44.96;102477.97;5048493;28;20033;-69
2023/04/30 06:35:24;;;;;;;10.57;3.03;;;;;;;18.02;45.54;102474.09;5040122;28;20029;-70
2023/04/30 06:37:50;;;;;;;5.23;2.43;;;;;;;18.26;44.77;102477.28;5035290;28;20091;-70
2023/04/30 06:40:15;;;;;;;6.33;2.50;;;;;;;17.87;46.12;102482.25;5052497;28;20033;-70
2023/04/30 06:42:40;;;;;;;8.33;2.93;;;;;;;17.34;46.80;102475.03;5043828;28;20024;-70
2023/04/30 06:45:06;;;;;;;3.60;2.30;;;;;;;18.24;45.42;102481.72;5043386;28;20455;-71
2023/04/30 06:47:37;;;;;;;5.33;2.87;;;;;;;18.14;44.66;102484.50;5046384;28;20021;-71
2023/04/30 06:50:03;;;;;;;4.47;2.53;;;;;;;18.54;44.84;102492.69;5047028;28;20051;-70
2023/04/30 06:52:30;;;;;;;3.97;2.17;;;;;;;18.56;44.40;102490.88;5047318;28;20049;-69
2023/04/30 06:54:55;;;;;;;8.47;2.57;;;;;;;19.48;43.30;102478.56;5050624;28;20431;-70
2023/04/30 06:57:20;;;;;;;4.33;2.70;;;;;;;19.30;43.49;102489.53;5044735;28;20021;-70
2023/04/30 06:59:46;;;;;;;4.77;2.83;;;;;;;19.97;43.92;102473.94;5047534;28;20614;-70
2023/04/30 07:02:13;;;;;;;6.77;3.20;;;;;;;20.84;40.52;102483.31;5042826;28;20046;-70
2023/04/30 07:04:38;;;;;;;4.90;2.57;;;;;;;20.66;40.86;102483.75;5027151;28;20084;-70
2023/04/30 07:07:04;;;;;;;3.70;2.30;;;;;;;22.46;37.91;102488.22;5032700;28;20097;-70
2023/04/30 07:09:29;;;;;;;3.95;2.00;;;;;;;24.88;33.51;102469.03;5043398;28;20400;-71
2023/04/30 07:11:57;;;;;;;3.92;2.03;;;;;;;24.07;34.15;102476.94;5045775;28;20040;-70
2023/04/30 07:14:23;;;;;;;4.68;2.30;;;;;;;24.21;33.94;102479.88;5061224;28;20075;-71
2023/04/30 07:16:52;;;;;;;3.03;2.13;;;;;;;24.97;32.30;102478.47;5038831;28;20029;-70
2023/04/30 07:19:17;;;;;;;3.63;2.15;;;;;;;26.30;30.71;102483.78;5046877;28;20036;-70
2023/04/30 07:21:43;;;;;;;2.35;1.60;;;;;;;26.02;30.64;102486.97;5051545;28;20404;-71
2023/04/30 07:24:08;;;;;;;2.35;1.88;;;;;;;26.71;30.10;102488.00;5051053;28;20439;-70
2023/04/30 07:26:35;;;;;;;2.25;1.60;;;;;;;25.51;31.31;102479.56;5051625;28;20036;-70
2023/04/30 07:29:00;;;;;;;2.63;2.00;;;;;;;26.56;30.07;102487.78;5068329;28;20513;-70
2023/04/30 07:31:26;;;;;;;3.33;2.03;;;;;;;26.73;29.13;102492.28;5053706;28;20044;-71
2023/04/30 07:33:51;;;;;;;3.03;1.75;;;;;;;27.51;28.36;102480.13;5048203;28;20091;-70
2023/04/30 07:36:17;;;;;;;3.67;2.25;;;;;;;27.78;28.00;102477.69;5039489;28;20025;-70
2023/04/30 07:38:42;;;;;;;2.50;1.60;;;;;;;28.32;27.00;102479.09;5046905;28;20021;-71
2023/04/30 07:41:08;;;;;;;2.40;1.63;;;;;;;28.74;26.68;102481.03;5037794;28;20112;-70
2023/04/30 07:43:34;;;;;;;2.58;1.55;;;;;;;29.01;26.07;102487.47;5038388;28;20056;-70
2023/04/30 07:46:00;;;;;;;4.38;1.60;;;;;;;28.27;27.18;102485.63;5037104;28;20484;-70
2023/04/30 07:48:25;;;;;;;3.13;1.50;;;;;;;29.61;25.00;102476.47;5045998;28;20041;-69
2023/04/30 07:50:51;;;;;;;4.70;1.90;;;;;;;29.53;25.72;102477.94;5052485;28;20053;-69
2023/04/30 07:53:16;;;;;;;3.03;2.05;;;;;;;29.18;25.60;102483.72;5048930;28;20041;-70
2023/04/30 07:55:41;;;;;;;2.15;1.48;;;;;;;29.38;25.47;102474.41;5050030;28;20717;-69
2023/04/30 07:58:07;;;;;;;2.90;1.88;;;;;;;29.88;25.52;102486.41;5044131;28;20028;-70
2023/04/30 08:00:33;;;;;;;2.67;1.88;;;;;;;29.44;24.98;102484.75;5030210;28;20027;-69
2023/04/30 08:02:59;;;;;;;2.33;1.58;;;;;;;29.62;25.60;102480.00;5032286;28;20059;-69
2023/04/30 08:05:25;;;;;;;2.30;1.77;;;;;;;29.76;25.77;102489.91;5030417;28;20047;-72
2023/04/30 08:07:51;;;;;;;2.35;1.60;;;;;;;31.78;22.69;102483.09;5040977;28;20032;-69
2023/04/30 08:10:16;;;;;;;2.58;1.45;;;;;;;31.32;23.29;102486.47;5058192;28;20033;-71
2023/04/30 08:12:42;;;;;;;2.13;1.60;;;;;;;30.74;24.04;102486.94;5031412;28;20036;-69
2023/04/30 08:15:07;;;;;;;3.80;1.75;;;;;;;29.77;25.12;102486.22;5030894;28;20057;-70
2023/04/30 08:17:33;;;;;;;2.20;1.70;;;;;;;28.50;26.25;102499.47;5036315;28;20047;-70
2023/04/30 08:20:00;;;;;;;5.47;2.20;;;;;;;30.63;24.04;102491.22;5063207;28;20299;-70
2023/04/30 08:22:25;;;;;;;3.00;1.60;;;;;;;29.74;25.93;102491.81;5028062;28;20478;-71
2023/04/30 08:24:51;;;;;;;2.75;1.48;;;;;;;30.25;24.55;102483.94;5041499;28;20039;-70
2023/04/30 08:27:16;;;;;;;3.13;1.70;;;;;;;31.27;23.41;102484.97;5050667;28;20322;-70
2023/04/30 08:29:41;;;;;;;2.78;1.83;;;;;;;30.63;23.78;102496.63;5048757;28;20423;-70
2023/04/30 08:32:08;;;;;;;1.98;1.70;;;;;;;30.69;22.90;102497.19;5051233;28;20028;-70
2023/04/30 08:34:33;;;;;;;2.15;1.70;;;;;;;30.42;24.36;102492.72;5042267;28;20021;-69
2023/04/30 08:36:59;;;;;;;3.22;1.90;;;;;;;30.47;25.84;102490.56;5050249;28;20028;-69
2023/04/30 08:39:24;;;;;;;2.08;1.50;;;;;;;30.29;25.76;102481.88;5051357;28;20477;-69
2023/04/30 08:41:59;;;;;;;4.53;1.80;;;;;;;30.29;24.68;102490.84;5047936;28;20036;-69
2023/04/30 08:44:26;;;;;;;2.08;1.52;;;;;;;30.76;24.00;102490.38;5048790;28;20436;-70
2023/04/30 08:46:53;;;;;;;2.55;1.73;;;;;;;30.76;23.95;102487.66;5048035;28;20108;-70
2023/04/30 08:49:20;;;;;;;2.75;1.95;;;;;;;30.96;24.34;102481.72;5037802;28;20090;-69
2023/04/30 08:51:46;;;;;;;2.22;1.60;;;;;;;30.55;24.85;102488.19;5042798;28;20077;-70
2023/04/30 08:54:13;;;;;;;2.90;1.75;;;;;;;29.90;24.37;102484.47;5031713;28;20143;-70
2023/04/30 08:56:39;;;;;;;2.42;1.60;;;;;;;32.02;23.06;102476.81;5050396;28;20130;-69
2023/04/30 08:59:05;;;;;;;1.77;1.48;;;;;;;31.51;23.09;102475.16;5040621;28;20021;-70
2023/04/30 09:01:31;;;;;;;4.13;1.92;;;;;;;30.80;23.90;102486.47;5047037;28;20389;-70
2023/04/30 09:03:56;;;;;;;1.60;1.50;;;;;;;31.14;23.63;102478.72;5043206;28;20029;-70
2023/04/30 09:06:22;;;;;;;1.70;1.60;;;;;;;32.22;22.33;102470.75;5030579;28;20029;-71
2023/04/30 09:08:48;;;;;;;5.85;1.80;;;;;;;31.29;23.82;102476.75;5039908;28;20025;-69
2023/04/30 09:11:24;;;;;;;2.08;1.52;;;;;;;31.01;23.88;102480.53;5047122;28;20021;-70
2023/04/30 09:13:52;;;;;;;2.90;2.05;;;;;;;32.57;22.65;102475.25;5048832;28;20388;-69
2023/04/30 09:16:19;;;;;;;3.10;1.60;;;;;;;31.59;24.33;102479.06;5041259;28;20053;-69
2023/04/30 09:18:45;;;;;;;3.67;1.92;;;;;;;31.09;23.74;102480.88;5030910;28;20029;-70
2023/04/30 09:21:10;;;;;;;2.13;1.60;;;;;;;32.77;22.55;102481.00;5041457;28;20397;-69
2023/04/30 09:23:35;;;;;;;2.53;1.65;;;;;;;33.10;21.83;102481.97;5032229;28;20176;-69
2023/04/30 09:26:01;;;;;;;2.00;1.70;;;;;;;33.00;22.27;102486.41;5040805;28;20074;-69
2023/04/30 09:28:28;;;;;;;2.53;1.95;;;;;;;31.15;23.14;102477.75;5032580;28;20033;-70
2023/04/30 09:30:56;;;;;;;3.45;1.90;;;;;;;31.62;23.46;102478.81;5028857;28;20469;-70
2023/04/30 09:33:21;;;;;;;3.67;1.60;;;;;;;30.20;24.60;102483.38;5043975;28;20057;-71
2023/04/30 09:35:47;;;;;;;2.35;1.77;;;;;;;30.55;25.00;102472.00;5051502;28;20114;-70
2023/04/30 09:38:27;;;;;;;1.77;1.45;;;;;;;31.52;24.18;102466.94;5040536;28;20067;-71
2023/04/30 09:40:53;;;;;;;3.45;1.88;;;;;;;31.03;23.40;102471.38;5040331;28;20025;-71
2023/04/30 09:43:18;;;;;;;1.92;1.67;;;;;;;32.51;22.62;102469.47;5031062;28;20380;-70
2023/04/30 09:45:47;;;;;;;2.45;1.65;;;;;;;32.45;22.92;102476.22;5031837;28;20496;-70
2023/04/30 09:48:14;;;;;;;2.75;1.30;;;;;;;32.24;22.45;102468.78;5032858;28;20033;-70
2023/04/30 09:50:41;;;;;;;1.60;1.50;;;;;;;30.75;24.66;102475.19;5028738;28;20389;-70
2023/04/30 09:53:12;;;;;;;2.20;1.65;;;;;;;32.37;22.51;102467.84;5029867;28;20064;-70
2023/04/30 09:55:42;;;;;;;2.92;1.60;;;;;;;31.96;23.68;102454.66;5041443;28;20035;-70
2023/04/30 09:58:09;;;;;;;1.70;1.60;;;;;;;32.42;23.19;102466.50;5051945;28;20109;-70
2023/04/30 10:00:36;;;;;;;1.50;1.30;;;;;;;31.78;23.48;102461.47;5043132;28;20032;-71
2023/04/30 10:03:07;;;;;;;1.85;1.33;;;;;;;32.90;22.38;102459.19;5030908;28;20032;-71
2023/04/30 10:05:47;;;;;;;2.15;1.35;;;;;;;32.91;22.28;102455.53;5044820;28;20029;-71
2023/04/30 10:08:39;;;;;;;2.00;1.55;;;;;;;33.28;21.46;102453.41;5026987;28;20030;-71
2023/04/30 10:11:07;;;;;;;2.05;1.63;;;;;;;32.96;21.61;102454.16;5027992;28;20473;-71
2023/04/30 10:13:48;;;;;;;1.77;1.35;;;;;;;32.88;21.34;102439.50;5026683;28;20434;-70
2023/04/30 10:16:22;;;;;;;1.55;1.40;;;;;;;32.56;22.37;102443.78;5028061;28;20021;-70
2023/04/30 10:18:51;;;;;;;2.28;1.65;;;;;;;32.28;23.13;102448.63;5028625;28;20076;-71
2023/04/30 10:21:20;;;;;;;1.73;1.58;;;;;;;32.10;22.44;102444.63;5028892;28;20113;-71
2023/04/30 10:23:47;;;;;;;1.65;1.23;;;;;;;33.23;20.96;102441.19;5028475;28;20100;-70
2023/04/30 10:26:15;;;;;;;2.83;1.25;;;;;;;32.64;22.46;102444.03;5026927;28;20021;-71
2023/04/30 10:28:41;;;;;;;1.10;1.00;;;;;;;30.21;22.96;102452.75;5027950;28;20116;-70
2023/04/30 10:31:09;;;;;;;1.58;0.95;;;;;;;32.41;21.88;102442.25;5027744;28;20036;-72
2023/04/30 10:33:50;;;;;;;2.28;1.60;;;;;;;31.01;23.60;102440.03;5029723;28;20087;-72
2023/04/30 10:36:23;;;;;;;1.63;1.52;;;;;;;32.19;23.50;102433.16;5028652;28;20067;-71
2023/04/30 10:38:50;;;;;;;2.28;1.60;;;;;;;33.50;21.49;102435.38;5029932;28;20029;-72
2023/04/30 10:41:19;;;;;;;1.23;1.02;;;;;;;31.67;21.92;102428.97;5028582;28;20060;-71
2023/04/30 10:43:46;;;;;;;1.25;1.10;;;;;;;30.98;21.89;102430.31;5045187;28;20064;-72
2023/04/30 10:46:20;;;;;;;1.35;1.23;;;;;;;30.77;23.02;102427.34;5031312;28;20032;-70
2023/04/30 10:48:46;;;;;;;1.45;1.30;;;;;;;30.93;23.16;102422.56;5033268;28;20057;-71
2023/04/30 10:51:11;;;;;;;2.10;1.25;;;;;;;32.05;23.36;102411.66;5033129;28;20056;-70
2023/04/30 10:53:39;;;;;;;1.42;1.20;;;;;;;32.26;22.44;102411.88;5032012;28;20148;-70
2023/04/30 10:56:07;;;;;;;1.25;1.02;;;;;;;31.19;22.89;102409.03;5048019;28;20036;-71
2023/04/30 10:58:37;;;;;;;1.42;1.10;;;;;;;32.05;22.13;102403.56;5032221;28;20475;-71
2023/04/30 11:01:14;;;;;;;1.30;1.15;;;;;;;32.77;21.68;102399.78;5033487;28;20037;-70
2023/04/30 11:03:41;;;;;;;1.73;1.33;;;;;;;31.87;23.14;102395.03;5032607;28;20060;-70
2023/04/30 11:06:14;;;;;;;2.20;2.00;;;;;;;31.87;23.14;102393.19;5032979;28;20033;-71
2023/04/30 11:08:45;;;;;;;2.53;1.55;;;;;;;32.77;22.89;102389.81;5032257;28;20132;-71
2023/04/30 11:11:13;;;;;;;3.95;1.95;;;;;;;31.90;23.16;102392.09;5030532;28;20533;-70
2023/04/30 11:13:58;;;;;;;1.50;1.23;;;;;;;33.17;22.00;102377.56;5033246;28;20179;-70
2023/04/30 11:16:33;;;;;;;2.67;1.63;;;;;;;32.82;22.42;102384.00;5030585;28;20570;-71
2023/04/30 11:19:13;;;;;;;1.13;1.05;;;;;;;33.26;21.45;102374.13;5033199;28;20056;-71
2023/04/30 11:22:02;;;;;;;1.58;1.23;;;;;;;33.73;22.11;102378.34;5033207;28;20437;-71
2023/04/30 11:24:59;;;;;;;1.30;1.17;;;;;;;32.76;21.00;102376.41;5030415;28;20039;-70